sensor_id;sensor_type;location;lat;lon;timestamp;pressure;altitude;pressure_sealevel;temperature;humidity
12664;BME280;6396;58.490;15.528;2023-04-05T00:02:25;101705.47;;;1.59;100.00
12664;BME280;6396;58.490;15.528;2023-04-05T00:04:55;101609.78;;;0.57;100.00
12664;BME280;6396;58.490;15.528;2023-04-05T00:07:22;101592.25;;;0.80;100.00
12664;BME280;6396;58.490;15.528;2023-04-05T00:09:51;101389.28;;;-0.51;100.00
12664;BME280;6396;58.490;15.528;2023-04-05T00:12:19;101773.94;;;1.57;100.00
12664;BME280;6396;58.490;15.528;2023-04-05T00:14:46;101600.63;;;0.70;100.00
12664;BME280;6396;58.490;15.528;2023-04-05T00:17:13;101879.50;;;2.36;100.00
12664;BME280;6396;58.490;15.528;2023-04-05T00:19:40;101912.28;;;2.29;100.00
12664;BME280;6396;58.490;15.528;2023-04-05T00:22:09;101731.06;;;1.44;100.00
12664;BME280;6396;58.490;15.528;2023-04-05T00:24:36;101713.25;;;1.28;100.00
12664;BME280;6396;58.490;15.528;2023-04-05T00:27:07;101974.50;;;2.19;100.00
12664;BME280;6396;58.490;15.528;2023-04-05T00:29:34;101912.03;;;2.20;100.00
12664;BME280;6396;58.490;15.528;2023-04-05T00:32:01;101647.28;;;0.67;100.00
12664;BME280;6396;58.490;15.528;2023-04-05T00:34:28;101848.50;;;2.15;100.00
12664;BME280;6396;58.490;15.528;2023-04-05T00:36:57;101722.81;;;1.28;100.00
12664;BME280;6396;58.490;15.528;2023-04-05T00:39:25;101486.19;;;-0.21;100.00
12664;BME280;6396;58.490;15.528;2023-04-05T00:41:52;101738.22;;;1.22;100.00
12664;BME280;6396;58.490;15.528;2023-04-05T00:44:18;101701.09;;;1.27;100.00
12664;BME280;6396;58.490;15.528;2023-04-05T00:46:45;101559.53;;;0.29;100.00
12664;BME280;6396;58.490;15.528;2023-04-05T00:49:12;101706.97;;;1.20;100.00
12664;BME280;6396;58.490;15.528;2023-04-05T00:51:39;101844.72;;;2.03;100.00
12664;BME280;6396;58.490;15.528;2023-04-05T00:54:06;101592.72;;;0.39;100.00
12664;BME280;6396;58.490;15.528;2023-04-05T00:56:34;101480.56;;;-0.08;100.00
12664;BME280;6396;58.490;15.528;2023-04-05T00:59:01;101790.63;;;1.65;100.00
12664;BME280;6396;58.490;15.528;2023-04-05T01:01:28;101733.25;;;1.01;100.00
12664;BME280;6396;58.490;15.528;2023-04-05T01:03:59;101539.38;;;0.20;100.00
12664;BME280;6396;58.490;15.528;2023-04-05T01:06:43;101602.03;;;0.04;100.00
12664;BME280;6396;58.490;15.528;2023-04-05T01:09:27;101864.84;;;1.80;100.00
12664;BME280;6396;58.490;15.528;2023-04-05T01:12:01;101529.91;;;-0.06;100.00
12664;BME280;6396;58.490;15.528;2023-04-05T01:14:30;101966.31;;;1.77;100.00
12664;BME280;6396;58.490;15.528;2023-04-05T01:16:57;101852.81;;;1.56;100.00
12664;BME280;6396;58.490;15.528;2023-04-05T01:19:26;101789.34;;;1.21;100.00
12664;BME280;6396;58.490;15.528;2023-04-05T01:22:07;101691.84;;;0.79;100.00
12664;BME280;6396;58.490;15.528;2023-04-05T01:24:52;101849.81;;;1.70;100.00
12664;BME280;6396;58.490;15.528;2023-04-05T01:27:32;101543.78;;;-0.06;100.00
12664;BME280;6396;58.490;15.528;2023-04-05T01:30:09;101553.47;;;0.00;100.00
12664;BME280;6396;58.490;15.528;2023-04-05T01:32:51;101577.09;;;0.09;100.00
12664;BME280;6396;58.490;15.528;2023-04-05T01:35:25;101284.00;;;-1.55;100.00
12664;BME280;6396;58.490;15.528;2023-04-05T01:37:58;101870.34;;;1.61;100.00
12664;BME280;6396;58.490;15.528;2023-04-05T01:40:26;101840.97;;;1.65;100.00
12664;BME280;6396;58.490;15.528;2023-04-05T01:42:53;101751.44;;;0.73;100.00
12664;BME280;6396;58.490;15.528;2023-04-05T01:45:22;101845.25;;;1.63;100.00
12664;BME280;6396;58.490;15.528;2023-04-05T01:47:48;101821.41;;;1.20;100.00
12664;BME280;6396;58.490;15.528;2023-04-05T01:50:15;101890.25;;;1.59;100.00
12664;BME280;6396;58.490;15.528;2023-04-05T01:52:42;101849.53;;;1.61;100.00
12664;BME280;6396;58.490;15.528;2023-04-05T01:55:09;101837.19;;;1.54;100.00
12664;BME280;6396;58.490;15.528;2023-04-05T01:57:36;101367.56;;;-1.34;100.00
12664;BME280;6396;58.490;15.528;2023-04-05T02:00:04;101732.56;;;0.52;100.00
12664;BME280;6396;58.490;15.528;2023-04-05T02:02:33;101398.47;;;-1.40;100.00
12664;BME280;6396;58.490;15.528;2023-04-05T02:05:00;101545.56;;;-0.30;100.00
12664;BME280;6396;58.490;15.528;2023-04-05T02:07:26;101629.28;;;0.17;100.00
12664;BME280;6396;58.490;15.528;2023-04-05T02:09:53;101715.13;;;-0.28;100.00
12664;BME280;6396;58.490;15.528;2023-04-05T02:12:20;101553.34;;;-0.30;100.00
12664;BME280;6396;58.490;15.528;2023-04-05T02:14:47;101941.78;;;1.43;100.00
12664;BME280;6396;58.490;15.528;2023-04-05T02:17:15;101863.50;;;1.37;100.00
12664;BME280;6396;58.490;15.528;2023-04-05T02:19:44;101323.94;;;-1.74;100.00
12664;BME280;6396;58.490;15.528;2023-04-05T02:22:12;101480.97;;;-0.75;100.00
12664;BME280;6396;58.490;15.528;2023-04-05T02:24:39;101332.94;;;-1.63;100.00
12664;BME280;6396;58.490;15.528;2023-04-05T02:27:06;101104.91;;;-2.99;100.00
12664;BME280;6396;58.490;15.528;2023-04-05T02:29:33;101865.66;;;1.22;100.00
12664;BME280;6396;58.490;15.528;2023-04-05T02:32:05;101522.38;;;-0.77;100.00
12664;BME280;6396;58.490;15.528;2023-04-05T02:34:32;101028.00;;;-4.00;100.00
12664;BME280;6396;58.490;15.528;2023-04-05T02:37:01;101617.84;;;-0.40;100.00
12664;BME280;6396;58.490;15.528;2023-04-05T02:39:28;101840.28;;;1.14;100.00
12664;BME280;6396;58.490;15.528;2023-04-05T02:41:55;101689.34;;;0.02;100.00
12664;BME280;6396;58.490;15.528;2023-04-05T02:44:23;101670.56;;;0.09;100.00
12664;BME280;6396;58.490;15.528;2023-04-05T02:46:50;101245.34;;;-2.50;100.00
12664;BME280;6396;58.490;15.528;2023-04-05T02:49:17;101704.25;;;0.08;100.00
12664;BME280;6396;58.490;15.528;2023-04-05T02:51:44;101826.94;;;1.04;100.00
12664;BME280;6396;58.490;15.528;2023-04-05T02:54:12;101420.41;;;-1.54;100.00
12664;BME280;6396;58.490;15.528;2023-04-05T02:56:39;101705.09;;;0.07;100.00
12664;BME280;6396;58.490;15.528;2023-04-05T02:59:06;101537.66;;;-0.86;100.00
12664;BME280;6396;58.490;15.528;2023-04-05T03:01:34;101120.22;;;-3.27;100.00
12664;BME280;6396;58.490;15.528;2023-04-05T03:04:02;101305.88;;;-1.96;100.00
12664;BME280;6396;58.490;15.528;2023-04-05T03:06:29;101133.53;;;-3.62;100.00
12664;BME280;6396;58.490;15.528;2023-04-05T03:08:56;101350.75;;;-1.72;100.00
12664;BME280;6396;58.490;15.528;2023-04-05T03:11:24;101255.47;;;-2.32;100.00
12664;BME280;6396;58.490;15.528;2023-04-05T03:13:51;100931.50;;;-4.30;100.00
12664;BME280;6396;58.490;15.528;2023-04-05T03:16:17;101527.00;;;-0.93;100.00
12664;BME280;6396;58.490;15.528;2023-04-05T03:18:45;101676.44;;;-0.22;100.00
12664;BME280;6396;58.490;15.528;2023-04-05T03:21:12;101661.06;;;-0.16;100.00
12664;BME280;6396;58.490;15.528;2023-04-05T03:23:42;101004.59;;;-4.49;100.00
12664;BME280;6396;58.490;15.528;2023-04-05T03:26:11;101630.31;;;-0.30;100.00
12664;BME280;6396;58.490;15.528;2023-04-05T03:28:40;101530.81;;;-1.07;100.00
12664;BME280;6396;58.490;15.528;2023-04-05T03:31:09;101848.53;;;0.75;100.00
12664;BME280;6396;58.490;15.528;2023-04-05T03:33:36;101297.00;;;-2.51;100.00
12664;BME280;6396;58.490;15.528;2023-04-05T03:36:03;101876.91;;;0.69;100.00
12664;BME280;6396;58.490;15.528;2023-04-05T03:38:30;101422.03;;;-1.80;100.00
12664;BME280;6396;58.490;15.528;2023-04-05T03:41:03;101825.56;;;0.62;100.00
12664;BME280;6396;58.490;15.528;2023-04-05T03:43:33;101072.41;;;-4.07;100.00
12664;BME280;6396;58.490;15.528;2023-04-05T03:46:01;101635.00;;;-0.44;100.00
12664;BME280;6396;58.490;15.528;2023-04-05T03:48:29;101502.72;;;-1.21;100.00
12664;BME280;6396;58.490;15.528;2023-04-05T03:50:55;101758.66;;;-0.44;100.00
12664;BME280;6396;58.490;15.528;2023-04-05T03:53:23;101631.41;;;-0.24;100.00
12664;BME280;6396;58.490;15.528;2023-04-05T03:55:50;101227.91;;;-2.79;100.00
12664;BME280;6396;58.490;15.528;2023-04-05T03:58:18;101830.63;;;0.57;100.00
12664;BME280;6396;58.490;15.528;2023-04-05T04:00:45;101679.06;;;-0.45;100.00
12664;BME280;6396;58.490;15.528;2023-04-05T04:03:13;101250.06;;;-2.85;100.00
12664;BME280;6396;58.490;15.528;2023-04-05T04:05:41;101249.75;;;-2.71;100.00
12664;BME280;6396;58.490;15.528;2023-04-05T04:08:08;101724.41;;;-0.11;100.00
12664;BME280;6396;58.490;15.528;2023-04-05T04:10:35;101633.84;;;-1.00;100.00
12664;BME280;6396;58.490;15.528;2023-04-05T04:13:02;101834.97;;;0.33;100.00
12664;BME280;6396;58.490;15.528;2023-04-05T04:15:29;101803.69;;;0.30;100.00
12664;BME280;6396;58.490;15.528;2023-04-05T04:17:56;101534.56;;;-1.47;100.00
12664;BME280;6396;58.490;15.528;2023-04-05T04:20:24;101801.13;;;0.32;100.00
12664;BME280;6396;58.490;15.528;2023-04-05T04:22:51;101595.50;;;-1.10;100.00
12664;BME280;6396;58.490;15.528;2023-04-05T04:25:19;101465.50;;;-1.48;100.00
12664;BME280;6396;58.490;15.528;2023-04-05T04:27:46;101646.94;;;-0.49;100.00
12664;BME280;6396;58.490;15.528;2023-04-05T04:30:14;101795.53;;;0.45;100.00
12664;BME280;6396;58.490;15.528;2023-04-05T04:32:42;101016.38;;;-4.33;100.00
12664;BME280;6396;58.490;15.528;2023-04-05T04:35:19;101803.81;;;0.33;100.00
12664;BME280;6396;58.490;15.528;2023-04-05T04:37:54;101032.28;;;-5.05;100.00
12664;BME280;6396;58.490;15.528;2023-04-05T04:40:23;101435.56;;;-1.87;100.00
12664;BME280;6396;58.490;15.528;2023-04-05T04:46:44;101813.88;;;0.24;100.00
12664;BME280;6396;58.490;15.528;2023-04-05T04:49:25;100986.34;;;-4.96;100.00
12664;BME280;6396;58.490;15.528;2023-04-05T04:51:52;101814.81;;;0.26;100.00
12664;BME280;6396;58.490;15.528;2023-04-05T04:54:23;101583.78;;;-0.99;100.00
12664;BME280;6396;58.490;15.528;2023-04-05T04:56:56;101287.34;;;-2.79;100.00
12664;BME280;6396;58.490;15.528;2023-04-05T05:00:01;101581.94;;;-1.03;100.00
12664;BME280;6396;58.490;15.528;2023-04-05T05:02:37;101002.34;;;-5.03;100.00
12664;BME280;6396;58.490;15.528;2023-04-05T05:08:30;101350.56;;;-2.91;100.00
12664;BME280;6396;58.490;15.528;2023-04-05T05:10:59;101822.50;;;0.48;100.00
12664;BME280;6396;58.490;15.528;2023-04-05T05:13:28;100998.28;;;-4.57;100.00
12664;BME280;6396;58.490;15.528;2023-04-05T05:16:00;101066.94;;;-4.58;100.00
12664;BME280;6396;58.490;15.528;2023-04-05T05:18:33;100956.13;;;-4.37;100.00
12664;BME280;6396;58.490;15.528;2023-04-05T05:21:00;101373.53;;;-2.55;100.00
12664;BME280;6396;58.490;15.528;2023-04-05T05:23:31;101253.34;;;-2.44;100.00
12664;BME280;6396;58.490;15.528;2023-04-05T05:25:59;101620.00;;;-0.29;100.00
12664;BME280;6396;58.490;15.528;2023-04-05T05:28:26;101891.19;;;0.81;100.00
12664;BME280;6396;58.490;15.528;2023-04-05T05:31:10;101273.16;;;-2.20;100.00
12664;BME280;6396;58.490;15.528;2023-04-05T05:33:38;101266.13;;;-2.23;100.00
12664;BME280;6396;58.490;15.528;2023-04-05T05:36:06;101719.19;;;0.15;100.00
12664;BME280;6396;58.490;15.528;2023-04-05T05:38:33;101814.63;;;0.98;100.00
12664;BME280;6396;58.490;15.528;2023-04-05T05:41:07;101192.56;;;-2.56;100.00
12664;BME280;6396;58.490;15.528;2023-04-05T05:43:34;101694.78;;;0.35;100.00
12664;BME280;6396;58.490;15.528;2023-04-05T05:46:01;101719.94;;;0.37;100.00
12664;BME280;6396;58.490;15.528;2023-04-05T05:48:28;101833.16;;;1.09;100.00
12664;BME280;6396;58.490;15.528;2023-04-05T05:50:54;101658.22;;;0.29;100.00
12664;BME280;6396;58.490;15.528;2023-04-05T05:53:26;101101.06;;;-2.86;100.00
12664;BME280;6396;58.490;15.528;2023-04-05T05:55:53;101428.53;;;-1.67;100.00
12664;BME280;6396;58.490;15.528;2023-04-05T05:58:22;101542.75;;;-0.37;100.00
12664;BME280;6396;58.490;15.528;2023-04-05T06:00:49;101431.03;;;-0.70;100.00
12664;BME280;6396;58.490;15.528;2023-04-05T06:03:18;101242.09;;;-1.95;100.00
12664;BME280;6396;58.490;15.528;2023-04-05T06:05:50;101511.63;;;-0.37;100.00
12664;BME280;6396;58.490;15.528;2023-04-05T06:08:17;101274.53;;;-1.55;100.00
12664;BME280;6396;58.490;15.528;2023-04-05T06:10:43;101920.41;;;1.53;100.00
12664;BME280;6396;58.490;15.528;2023-04-05T06:13:10;101305.78;;;-1.49;100.00
12664;BME280;6396;58.490;15.528;2023-04-05T06:15:39;101648.91;;;0.35;100.00
12664;BME280;6396;58.490;15.528;2023-04-05T06:18:07;101553.69;;;0.08;100.00
12664;BME280;6396;58.490;15.528;2023-04-05T06:20:34;101157.69;;;-2.18;100.00
12664;BME280;6396;58.490;15.528;2023-04-05T06:23:04;101820.69;;;1.83;100.00
12664;BME280;6396;58.490;15.528;2023-04-05T06:25:32;101506.59;;;0.24;100.00
12664;BME280;6396;58.490;15.528;2023-04-05T06:27:59;101802.09;;;2.01;100.00
12664;BME280;6396;58.490;15.528;2023-04-05T06:30:26;101440.63;;;-0.13;100.00
12664;BME280;6396;58.490;15.528;2023-04-05T06:32:54;101699.69;;;1.69;100.00
12664;BME280;6396;58.490;15.528;2023-04-05T06:35:21;101791.03;;;2.42;100.00
12664;BME280;6396;58.490;15.528;2023-04-05T06:37:48;101688.59;;;2.09;100.00
12664;BME280;6396;58.490;15.528;2023-04-05T06:40:15;101788.75;;;3.27;100.00
12664;BME280;6396;58.490;15.528;2023-04-05T06:42:42;101772.72;;;3.92;100.00
12664;BME280;6396;58.490;15.528;2023-04-05T06:45:10;101768.47;;;4.46;100.00
12664;BME280;6396;58.490;15.528;2023-04-05T06:47:38;101559.09;;;4.30;100.00
12664;BME280;6396;58.490;15.528;2023-04-05T06:50:08;101792.84;;;7.34;100.00
12664;BME280;6396;58.490;15.528;2023-04-05T06:52:35;101529.28;;;7.40;100.00
12664;BME280;6396;58.490;15.528;2023-04-05T06:55:01;101846.66;;;10.00;100.00
12664;BME280;6396;58.490;15.528;2023-04-05T06:57:29;101459.50;;;9.23;100.00
12664;BME280;6396;58.490;15.528;2023-04-05T06:59:56;101852.41;;;11.79;91.45
12664;BME280;6396;58.490;15.528;2023-04-05T07:02:24;101542.63;;;11.32;76.68
12664;BME280;6396;58.490;15.528;2023-04-05T07:04:51;101789.38;;;13.22;70.95
12664;BME280;6396;58.490;15.528;2023-04-05T07:07:19;101836.75;;;13.89;64.57
12664;BME280;6396;58.490;15.528;2023-04-05T07:09:46;101573.59;;;12.80;59.53
12664;BME280;6396;58.490;15.528;2023-04-05T07:12:13;101402.41;;;12.70;59.25
12664;BME280;6396;58.490;15.528;2023-04-05T07:14:40;101376.22;;;12.57;56.52
12664;BME280;6396;58.490;15.528;2023-04-05T07:17:06;101288.94;;;12.87;52.92
12664;BME280;6396;58.490;15.528;2023-04-05T07:19:33;101499.72;;;14.15;52.13
12664;BME280;6396;58.490;15.528;2023-04-05T07:22:00;101241.84;;;12.63;50.99
12664;BME280;6396;58.490;15.528;2023-04-05T07:24:28;101771.28;;;16.25;49.23
12664;BME280;6396;58.490;15.528;2023-04-05T07:26:56;101732.47;;;16.44;49.09
12664;BME280;6396;58.490;15.528;2023-04-05T07:29:23;100980.75;;;12.19;45.09
12664;BME280;6396;58.490;15.528;2023-04-05T07:31:50;101356.16;;;14.50;46.13
12664;BME280;6396;58.490;15.528;2023-04-05T07:34:17;101561.63;;;15.98;45.98
12664;BME280;6396;58.490;15.528;2023-04-05T07:36:44;101728.69;;;17.03;45.66
12664;BME280;6396;58.490;15.528;2023-04-05T07:39:13;101074.50;;;11.76;45.37
12664;BME280;6396;58.490;15.528;2023-04-05T07:41:42;101296.78;;;12.55;47.14
12664;BME280;6396;58.490;15.528;2023-04-05T07:44:09;101514.16;;;13.33;45.89
12664;BME280;6396;58.490;15.528;2023-04-05T07:46:36;101296.75;;;12.93;46.41
12664;BME280;6396;58.490;15.528;2023-04-05T07:49:03;101239.44;;;12.88;43.86
12664;BME280;6396;58.490;15.528;2023-04-05T07:51:30;100920.81;;;12.18;44.39
12664;BME280;6396;58.490;15.528;2023-04-05T07:54:00;101318.31;;;14.11;44.99
12664;BME280;6396;58.490;15.528;2023-04-05T07:56:28;101286.78;;;13.69;43.19
12664;BME280;6396;58.490;15.528;2023-04-05T07:59:08;101382.50;;;12.11;39.71
12664;BME280;6396;58.490;15.528;2023-04-05T08:01:35;101461.81;;;11.70;45.04
12664;BME280;6396;58.490;15.528;2023-04-05T08:04:02;101486.31;;;10.60;45.69
12664;BME280;6396;58.490;15.528;2023-04-05T08:06:28;101748.00;;;11.30;47.27
12664;BME280;6396;58.490;15.528;2023-04-05T08:08:55;101657.44;;;10.20;47.28
12664;BME280;6396;58.490;15.528;2023-04-05T08:11:22;101467.59;;;8.87;50.60
12664;BME280;6396;58.490;15.528;2023-04-05T08:13:50;101486.25;;;8.39;53.02
12664;BME280;6396;58.490;15.528;2023-04-05T08:16:19;101601.97;;;8.81;50.88
12664;BME280;6396;58.490;15.528;2023-04-05T08:18:46;101428.53;;;7.66;52.78
12664;BME280;6396;58.490;15.528;2023-04-05T08:21:13;101196.66;;;6.09;52.73
12664;BME280;6396;58.490;15.528;2023-04-05T08:23:40;101448.66;;;6.94;52.38
12664;BME280;6396;58.490;15.528;2023-04-05T08:26:07;101680.06;;;8.13;53.44
12664;BME280;6396;58.490;15.528;2023-04-05T08:28:34;101182.63;;;5.80;54.09
12664;BME280;6396;58.490;15.528;2023-04-05T08:31:00;101665.19;;;8.54;52.57
12664;BME280;6396;58.490;15.528;2023-04-05T08:33:29;101614.28;;;7.67;52.46
12664;BME280;6396;58.490;15.528;2023-04-05T08:35:56;101431.84;;;6.37;55.52
12664;BME280;6396;58.490;15.528;2023-04-05T08:38:22;101682.69;;;8.02;56.30
12664;BME280;6396;58.490;15.528;2023-04-05T08:40:50;101723.97;;;8.51;53.38
12664;BME280;6396;58.490;15.528;2023-04-05T08:43:22;101721.34;;;8.45;56.88
12664;BME280;6396;58.490;15.528;2023-04-05T08:45:51;101508.25;;;7.37;52.14
12664;BME280;6396;58.490;15.528;2023-04-05T08:48:19;101471.38;;;6.79;55.70
12664;BME280;6396;58.490;15.528;2023-04-05T08:50:51;100821.56;;;3.27;54.92
12664;BME280;6396;58.490;15.528;2023-04-05T08:53:18;101312.53;;;5.39;56.83
12664;BME280;6396;58.490;15.528;2023-04-05T08:55:48;101129.22;;;5.31;61.01
12664;BME280;6396;58.490;15.528;2023-04-05T08:58:16;101282.34;;;6.25;58.69
12664;BME280;6396;58.490;15.528;2023-04-05T09:00:43;101288.47;;;6.26;55.98
12664;BME280;6396;58.490;15.528;2023-04-05T09:03:14;101318.25;;;7.23;49.00
12664;BME280;6396;58.490;15.528;2023-04-05T09:05:44;101327.88;;;7.27;54.70
12664;BME280;6396;58.490;15.528;2023-04-05T09:08:13;101590.63;;;8.07;55.40
12664;BME280;6396;58.490;15.528;2023-04-05T09:10:40;101294.50;;;6.02;60.94
12664;BME280;6396;58.490;15.528;2023-04-05T09:13:07;101015.44;;;4.36;58.69
12664;BME280;6396;58.490;15.528;2023-04-05T09:15:34;101310.94;;;5.65;64.54
12664;BME280;6396;58.490;15.528;2023-04-05T09:18:02;101420.47;;;6.29;59.62
12664;BME280;6396;58.490;15.528;2023-04-05T09:20:29;101561.53;;;6.94;62.69
12664;BME280;6396;58.490;15.528;2023-04-05T09:22:56;101730.78;;;7.57;66.23
12664;BME280;6396;58.490;15.528;2023-04-05T09:25:36;101636.78;;;6.90;58.13
12664;BME280;6396;58.490;15.528;2023-04-05T09:28:04;101577.78;;;6.25;63.74
12664;BME280;6396;58.490;15.528;2023-04-05T09:30:32;101726.94;;;6.97;69.16
12664;BME280;6396;58.490;15.528;2023-04-05T09:32:59;101519.63;;;5.66;65.49
12664;BME280;6396;58.490;15.528;2023-04-05T09:35:28;101472.56;;;4.79;63.19
12664;BME280;6396;58.490;15.528;2023-04-05T09:37:57;101546.66;;;5.59;77.44
12664;BME280;6396;58.490;15.528;2023-04-05T09:40:40;101509.75;;;5.35;78.28
12664;BME280;6396;58.490;15.528;2023-04-05T09:43:08;101738.75;;;6.39;78.69
12664;BME280;6396;58.490;15.528;2023-04-05T09:45:38;101801.66;;;6.34;67.56
12664;BME280;6396;58.490;15.528;2023-04-05T09:48:06;101692.41;;;6.38;71.64
12664;BME280;6396;58.490;15.528;2023-04-05T09:50:33;101169.44;;;3.25;67.52
12664;BME280;6396;58.490;15.528;2023-04-05T09:53:07;100966.06;;;1.89;63.71
12664;BME280;6396;58.490;15.528;2023-04-05T09:55:41;101332.41;;;4.20;66.25
12664;BME280;6396;58.490;15.528;2023-04-05T09:58:21;100958.38;;;1.40;65.41
12664;BME280;6396;58.490;15.528;2023-04-05T10:00:56;101761.97;;;6.01;71.31
12664;BME280;6396;58.490;15.528;2023-04-05T10:03:28;101738.38;;;5.98;74.35
12664;BME280;6396;58.490;15.528;2023-04-05T10:05:55;101452.38;;;4.71;80.26
12664;BME280;6396;58.490;15.528;2023-04-05T10:08:23;101513.31;;;4.64;80.42
12664;BME280;6396;58.490;15.528;2023-04-05T10:10:51;101334.00;;;3.40;71.45
12664;BME280;6396;58.490;15.528;2023-04-05T10:13:20;101548.38;;;4.78;78.39
12664;BME280;6396;58.490;15.528;2023-04-05T10:15:49;101664.50;;;5.57;78.97
12664;BME280;6396;58.490;15.528;2023-04-05T10:18:21;101688.13;;;5.60;78.37
12664;BME280;6396;58.490;15.528;2023-04-05T10:20:51;101454.56;;;3.70;89.60
12664;BME280;6396;58.490;15.528;2023-04-05T10:23:22;101687.34;;;5.69;77.07
12664;BME280;6396;58.490;15.528;2023-04-05T10:26:00;101093.63;;;2.47;77.84
12664;BME280;6396;58.490;15.528;2023-04-05T10:28:32;101254.88;;;3.41;79.02
12664;BME280;6396;58.490;15.528;2023-04-05T10:31:09;100805.31;;;0.55;88.54
12664;BME280;6396;58.490;15.528;2023-04-05T10:33:42;101670.53;;;5.49;82.10
12664;BME280;6396;58.490;15.528;2023-04-05T10:36:15;101089.97;;;2.35;86.75
12664;BME280;6396;58.490;15.528;2023-04-05T10:38:54;101702.06;;;5.58;82.50
12664;BME280;6396;58.490;15.528;2023-04-05T10:41:33;101632.16;;;5.51;83.57
12664;BME280;6396;58.490;15.528;2023-04-05T10:44:01;101215.38;;;3.14;81.74
12664;BME280;6396;58.490;15.528;2023-04-05T10:46:30;101632.19;;;5.55;83.85
12664;BME280;6396;58.490;15.528;2023-04-05T10:49:01;101651.28;;;5.47;82.59
12664;BME280;6396;58.490;15.528;2023-04-05T10:51:30;101014.50;;;1.27;74.04
12664;BME280;6396;58.490;15.528;2023-04-05T10:54:06;101617.22;;;5.44;87.65
12664;BME280;6396;58.490;15.528;2023-04-05T10:56:52;101745.34;;;5.30;91.33
12664;BME280;6396;58.490;15.528;2023-04-05T10:59:44;100572.78;;;-0.83;78.71
12664;BME280;6396;58.490;15.528;2023-04-05T11:02:28;101570.03;;;4.05;82.59
12664;BME280;6396;58.490;15.528;2023-04-05T11:23:02;100750.84;;;0.09;70.50
12664;BME280;6396;58.490;15.528;2023-04-05T11:25:22;101601.97;;;5.07;77.87
12664;BME280;6396;58.490;15.528;2023-04-05T11:28:03;101517.56;;;4.54;74.33
12664;BME280;6396;58.490;15.528;2023-04-05T11:30:53;101078.59;;;1.25;81.98
12664;BME280;6396;58.490;15.528;2023-04-05T11:33:36;100773.72;;;0.31;87.21
12664;BME280;6396;58.490;15.528;2023-04-05T11:36:03;100631.16;;;-0.59;96.11
12664;BME280;6396;58.490;15.528;2023-04-05T11:38:36;101457.19;;;3.73;87.54
12664;BME280;6396;58.490;15.528;2023-04-05T11:41:08;100730.44;;;-0.20;100.00
12664;BME280;6396;58.490;15.528;2023-04-05T11:43:37;101468.13;;;4.06;100.00
12664;BME280;6396;58.490;15.528;2023-04-05T11:46:04;101680.53;;;5.13;100.00
12664;BME280;6396;58.490;15.528;2023-04-05T11:48:31;101065.03;;;1.92;100.00
12664;BME280;6396;58.490;15.528;2023-04-05T11:50:59;101345.16;;;3.28;100.00
12664;BME280;6396;58.490;15.528;2023-04-05T11:53:28;101541.22;;;4.60;100.00
12664;BME280;6396;58.490;15.528;2023-04-05T11:56:05;101274.09;;;2.88;87.08
12664;BME280;6396;58.490;15.528;2023-04-05T11:58:33;101558.56;;;3.95;100.00
12664;BME280;6396;58.490;15.528;2023-04-05T12:01:02;101520.56;;;4.18;96.56
12664;BME280;6396;58.490;15.528;2023-04-05T12:03:30;101657.31;;;4.74;99.78
12664;BME280;6396;58.490;15.528;2023-04-05T12:05:58;100882.03;;;-0.07;96.52
12664;BME280;6396;58.490;15.528;2023-04-05T12:08:42;100711.03;;;-0.81;100.00
12664;BME280;6396;58.490;15.528;2023-04-05T12:11:24;101094.19;;;1.25;100.00
12664;BME280;6396;58.490;15.528;2023-04-05T12:13:53;101641.88;;;4.32;100.00
12664;BME280;6396;58.490;15.528;2023-04-05T12:16:20;101068.41;;;1.37;100.00
12664;BME280;6396;58.490;15.528;2023-04-05T12:18:52;101023.97;;;0.79;100.00
12664;BME280;6396;58.490;15.528;2023-04-05T12:21:20;101377.53;;;2.87;100.00
12664;BME280;6396;58.490;15.528;2023-04-05T12:23:48;101317.13;;;2.14;100.00
12664;BME280;6396;58.490;15.528;2023-04-05T12:26:18;101570.75;;;3.95;100.00
12664;BME280;6396;58.490;15.528;2023-04-05T12:28:49;101740.00;;;4.12;100.00
12664;BME280;6396;58.490;15.528;2023-04-05T12:31:16;100871.28;;;-0.98;100.00
12664;BME280;6396;58.490;15.528;2023-04-05T12:33:43;101665.94;;;3.63;100.00
12664;BME280;6396;58.490;15.528;2023-04-05T12:36:14;101298.34;;;1.85;100.00
12664;BME280;6396;58.490;15.528;2023-04-05T12:38:43;100869.47;;;-1.03;100.00
12664;BME280;6396;58.490;15.528;2023-04-05T12:41:12;101429.94;;;1.36;100.00
12664;BME280;6396;58.490;15.528;2023-04-05T12:43:41;101065.72;;;0.08;100.00
12664;BME280;6396;58.490;15.528;2023-04-05T12:46:16;101057.94;;;0.08;100.00
12664;BME280;6396;58.490;15.528;2023-04-05T12:48:49;100784.03;;;-1.72;100.00
12664;BME280;6396;58.490;15.528;2023-04-05T12:51:16;101649.53;;;3.25;100.00
12664;BME280;6396;58.490;15.528;2023-04-05T12:53:46;101386.38;;;1.64;100.00
12664;BME280;6396;58.490;15.528;2023-04-05T12:56:23;100847.56;;;-1.81;100.00
12664;BME280;6396;58.490;15.528;2023-04-05T12:58:56;101692.63;;;3.06;100.00
12664;BME280;6396;58.490;15.528;2023-04-05T13:01:34;101729.72;;;2.93;100.00
12664;BME280;6396;58.490;15.528;2023-04-05T13:04:25;101743.56;;;2.91;100.00
12664;BME280;6396;58.490;15.528;2023-04-05T13:08:02;101783.94;;;2.69;100.00
12664;BME280;6396;58.490;15.528;2023-04-05T13:10:40;100731.06;;;-2.50;100.00
12664;BME280;6396;58.490;15.528;2023-04-05T13:13:09;101634.38;;;2.66;100.00
12664;BME280;6396;58.490;15.528;2023-04-05T13:15:39;100674.16;;;-3.42;100.00
12664;BME280;6396;58.490;15.528;2023-04-05T13:18:06;101110.03;;;-0.53;100.00
12664;BME280;6396;58.490;15.528;2023-04-05T13:20:33;101049.31;;;-0.94;100.00
12664;BME280;6396;58.490;15.528;2023-04-05T13:23:03;101421.22;;;1.34;100.00
12664;BME280;6396;58.490;15.528;2023-04-05T13:25:35;101716.97;;;2.68;100.00
12664;BME280;6396;58.490;15.528;2023-04-05T13:28:02;100777.09;;;-2.05;100.00
12664;BME280;6396;58.490;15.528;2023-04-05T13:30:30;101149.06;;;-0.16;100.00